sensor_id;sensor_type;location;lat;lon;timestamp;P1;durP1;ratioP1;P2;durP2;ratioP2
920;SDS011;447;51.332;6.778;2023-08-06T00:00:05;3.27;;;3.07;;
920;SDS011;447;51.332;6.778;2023-08-06T00:02:34;3.53;;;3.23;;
920;SDS011;447;51.332;6.778;2023-08-06T00:05:00;3.90;;;3.37;;
920;SDS011;447;51.332;6.778;2023-08-06T00:07:29;3.83;;;3.53;;
920;SDS011;447;51.332;6.778;2023-08-06T00:09:55;3.67;;;3.37;;
920;SDS011;447;51.332;6.778;2023-08-06T00:12:26;3.10;;;2.90;;
920;SDS011;447;51.332;6.778;2023-08-06T00:14:54;3.43;;;3.13;;
920;SDS011;447;51.332;6.778;2023-08-06T00:17:23;4.40;;;3.07;;
920;SDS011;447;51.332;6.778;2023-08-06T00:19:51;4.40;;;3.30;;
920;SDS011;447;51.332;6.778;2023-08-06T00:22:19;3.30;;;3.00;;
920;SDS011;447;51.332;6.778;2023-08-06T00:24:45;4.00;;;3.20;;
920;SDS011;447;51.332;6.778;2023-08-06T00:27:16;3.73;;;3.30;;
920;SDS011;447;51.332;6.778;2023-08-06T00:29:42;3.73;;;3.33;;
920;SDS011;447;51.332;6.778;2023-08-06T00:32:08;3.93;;;3.63;;
920;SDS011;447;51.332;6.778;2023-08-06T00:34:34;3.73;;;3.43;;
920;SDS011;447;51.332;6.778;2023-08-06T00:37:01;3.60;;;3.30;;
920;SDS011;447;51.332;6.778;2023-08-06T00:39:27;3.30;;;3.00;;
920;SDS011;447;51.332;6.778;2023-08-06T00:41:55;3.70;;;3.40;;
920;SDS011;447;51.332;6.778;2023-08-06T00:44:21;5.40;;;3.23;;
920;SDS011;447;51.332;6.778;2023-08-06T00:46:48;3.37;;;3.07;;
920;SDS011;447;51.332;6.778;2023-08-06T00:49:16;3.30;;;3.10;;
920;SDS011;447;51.332;6.778;2023-08-06T00:51:45;3.37;;;2.97;;
920;SDS011;447;51.332;6.778;2023-08-06T00:54:14;3.23;;;2.80;;
920;SDS011;447;51.332;6.778;2023-08-06T00:56:40;3.97;;;3.63;;
920;SDS011;447;51.332;6.778;2023-08-06T00:59:10;3.87;;;3.17;;
920;SDS011;447;51.332;6.778;2023-08-06T01:01:39;4.30;;;3.90;;
920;SDS011;447;51.332;6.778;2023-08-06T01:04:07;3.27;;;2.97;;
920;SDS011;447;51.332;6.778;2023-08-06T01:09:30;3.70;;;3.40;;
920;SDS011;447;51.332;6.778;2023-08-06T01:12:21;3.37;;;3.13;;
920;SDS011;447;51.332;6.778;2023-08-06T01:15:00;3.30;;;3.00;;
920;SDS011;447;51.332;6.778;2023-08-06T01:17:33;3.47;;;3.17;;
920;SDS011;447;51.332;6.778;2023-08-06T01:20:03;3.70;;;3.40;;
920;SDS011;447;51.332;6.778;2023-08-06T01:22:29;4.27;;;3.33;;
920;SDS011;447;51.332;6.778;2023-08-06T01:25:00;3.33;;;3.00;;
920;SDS011;447;51.332;6.778;2023-08-06T01:27:50;3.40;;;3.00;;
920;SDS011;447;51.332;6.778;2023-08-06T01:30:27;3.30;;;3.00;;
920;SDS011;447;51.332;6.778;2023-08-06T01:33:02;4.10;;;3.70;;
920;SDS011;447;51.332;6.778;2023-08-06T01:35:33;3.90;;;3.60;;
920;SDS011;447;51.332;6.778;2023-08-06T01:38:03;4.40;;;4.00;;
920;SDS011;447;51.332;6.778;2023-08-06T01:40:30;3.27;;;3.00;;
920;SDS011;447;51.332;6.778;2023-08-06T01:42:59;4.33;;;3.10;;
920;SDS011;447;51.332;6.778;2023-08-06T01:45:25;3.33;;;3.03;;
920;SDS011;447;51.332;6.778;2023-08-06T01:47:51;2.80;;;2.60;;
920;SDS011;447;51.332;6.778;2023-08-06T01:50:17;3.33;;;3.10;;
920;SDS011;447;51.332;6.778;2023-08-06T01:52:45;3.40;;;3.10;;
920;SDS011;447;51.332;6.778;2023-08-06T01:55:14;4.27;;;3.30;;
920;SDS011;447;51.332;6.778;2023-08-06T01:57:40;4.30;;;3.43;;
920;SDS011;447;51.332;6.778;2023-08-06T02:00:06;3.73;;;3.40;;
920;SDS011;447;51.332;6.778;2023-08-06T02:02:38;3.03;;;2.73;;
920;SDS011;447;51.332;6.778;2023-08-06T02:05:06;3.53;;;3.23;;
920;SDS011;447;51.332;6.778;2023-08-06T02:07:32;3.60;;;3.30;;
920;SDS011;447;51.332;6.778;2023-08-06T02:09:58;3.37;;;3.07;;
920;SDS011;447;51.332;6.778;2023-08-06T02:12:24;2.97;;;2.77;;
920;SDS011;447;51.332;6.778;2023-08-06T02:14:53;3.33;;;3.03;;
920;SDS011;447;51.332;6.778;2023-08-06T02:17:21;3.17;;;2.97;;
920;SDS011;447;51.332;6.778;2023-08-06T02:19:47;3.60;;;3.07;;
920;SDS011;447;51.332;6.778;2023-08-06T02:22:15;5.43;;;2.90;;
920;SDS011;447;51.332;6.778;2023-08-06T02:24:41;3.67;;;3.37;;
920;SDS011;447;51.332;6.778;2023-08-06T02:27:09;3.27;;;2.97;;
920;SDS011;447;51.332;6.778;2023-08-06T02:29:35;3.30;;;3.00;;
920;SDS011;447;51.332;6.778;2023-08-06T02:32:05;3.47;;;3.20;;
920;SDS011;447;51.332;6.778;2023-08-06T02:34:32;3.77;;;3.47;;
920;SDS011;447;51.332;6.778;2023-08-06T02:37:02;4.37;;;3.20;;
920;SDS011;447;51.332;6.778;2023-08-06T02:39:28;3.27;;;2.97;;
920;SDS011;447;51.332;6.778;2023-08-06T02:41:54;3.30;;;3.00;;
920;SDS011;447;51.332;6.778;2023-08-06T02:44:20;3.40;;;3.10;;
920;SDS011;447;51.332;6.778;2023-08-06T02:46:48;4.43;;;3.63;;
920;SDS011;447;51.332;6.778;2023-08-06T02:49:19;3.37;;;3.07;;
920;SDS011;447;51.332;6.778;2023-08-06T02:51:45;3.53;;;3.23;;
920;SDS011;447;51.332;6.778;2023-08-06T02:54:12;5.60;;;3.77;;
920;SDS011;447;51.332;6.778;2023-08-06T02:56:38;3.63;;;3.33;;
920;SDS011;447;51.332;6.778;2023-08-06T02:59:13;3.67;;;3.37;;
920;SDS011;447;51.332;6.778;2023-08-06T03:02:14;3.83;;;2.97;;
920;SDS011;447;51.332;6.778;2023-08-06T03:05:08;3.30;;;2.93;;
920;SDS011;447;51.332;6.778;2023-08-06T03:07:39;4.33;;;4.03;;
920;SDS011;447;51.332;6.778;2023-08-06T03:10:12;6.57;;;3.13;;
920;SDS011;447;51.332;6.778;2023-08-06T03:12:39;4.83;;;3.30;;
920;SDS011;447;51.332;6.778;2023-08-06T03:15:05;3.43;;;2.90;;
920;SDS011;447;51.332;6.778;2023-08-06T03:17:32;2.90;;;2.70;;
920;SDS011;447;51.332;6.778;2023-08-06T03:19:58;3.60;;;3.30;;
920;SDS011;447;51.332;6.778;2023-08-06T03:22:27;2.90;;;2.70;;
920;SDS011;447;51.332;6.778;2023-08-06T03:24:55;3.33;;;3.03;;
920;SDS011;447;51.332;6.778;2023-08-06T03:27:23;3.10;;;2.90;;
920;SDS011;447;51.332;6.778;2023-08-06T03:29:50;2.80;;;2.60;;
920;SDS011;447;51.332;6.778;2023-08-06T03:32:21;2.97;;;2.77;;
920;SDS011;447;51.332;6.778;2023-08-06T03:34:50;4.10;;;3.43;;
920;SDS011;447;51.332;6.778;2023-08-06T03:37:19;3.70;;;3.40;;
920;SDS011;447;51.332;6.778;2023-08-06T03:39:45;3.30;;;3.07;;
920;SDS011;447;51.332;6.778;2023-08-06T03:42:16;2.83;;;2.63;;
920;SDS011;447;51.332;6.778;2023-08-06T03:44:42;4.13;;;3.13;;
920;SDS011;447;51.332;6.778;2023-08-06T03:47:09;3.57;;;3.27;;
920;SDS011;447;51.332;6.778;2023-08-06T03:49:38;2.83;;;2.63;;
920;SDS011;447;51.332;6.778;2023-08-06T03:52:10;3.13;;;2.50;;
920;SDS011;447;51.332;6.778;2023-08-06T03:54:35;2.90;;;2.70;;
920;SDS011;447;51.332;6.778;2023-08-06T03:57:01;3.90;;;3.20;;
920;SDS011;447;51.332;6.778;2023-08-06T03:59:30;3.70;;;3.20;;
920;SDS011;447;51.332;6.778;2023-08-06T04:01:58;4.07;;;3.77;;
920;SDS011;447;51.332;6.778;2023-08-06T04:04:24;3.03;;;2.83;;
920;SDS011;447;51.332;6.778;2023-08-06T04:06:51;3.80;;;3.50;;
920;SDS011;447;51.332;6.778;2023-08-06T04:09:21;3.00;;;2.80;;
920;SDS011;447;51.332;6.778;2023-08-06T04:11:47;3.17;;;2.97;;
920;SDS011;447;51.332;6.778;2023-08-06T04:14:16;2.60;;;2.40;;
920;SDS011;447;51.332;6.778;2023-08-06T04:16:42;2.80;;;2.60;;
920;SDS011;447;51.332;6.778;2023-08-06T04:19:08;2.93;;;2.73;;
920;SDS011;447;51.332;6.778;2023-08-06T04:21:33;4.10;;;3.80;;
920;SDS011;447;51.332;6.778;2023-08-06T04:23:59;3.20;;;2.90;;
920;SDS011;447;51.332;6.778;2023-08-06T04:26:28;5.20;;;3.43;;
920;SDS011;447;51.332;6.778;2023-08-06T04:28:57;4.70;;;3.30;;
920;SDS011;447;51.332;6.778;2023-08-06T04:31:26;3.57;;;3.27;;
920;SDS011;447;51.332;6.778;2023-08-06T04:33:56;3.10;;;2.87;;
920;SDS011;447;51.332;6.778;2023-08-06T04:36:22;2.90;;;2.70;;
920;SDS011;447;51.332;6.778;2023-08-06T04:38:48;3.80;;;3.17;;
920;SDS011;447;51.332;6.778;2023-08-06T04:41:16;3.43;;;3.00;;
920;SDS011;447;51.332;6.778;2023-08-06T04:43:45;3.07;;;2.87;;
920;SDS011;447;51.332;6.778;2023-08-06T04:46:15;4.47;;;2.97;;
920;SDS011;447;51.332;6.778;2023-08-06T04:48:41;2.97;;;2.77;;
920;SDS011;447;51.332;6.778;2023-08-06T04:51:07;3.20;;;3.00;;
920;SDS011;447;51.332;6.778;2023-08-06T04:53:33;2.90;;;2.70;;
920;SDS011;447;51.332;6.778;2023-08-06T04:55:59;3.33;;;3.10;;
920;SDS011;447;51.332;6.778;2023-08-06T04:58:25;3.70;;;3.40;;
920;SDS011;447;51.332;6.778;2023-08-06T05:00:53;3.07;;;2.87;;
920;SDS011;447;51.332;6.778;2023-08-06T05:03:19;3.50;;;3.20;;
920;SDS011;447;51.332;6.778;2023-08-06T05:05:45;3.23;;;2.90;;
920;SDS011;447;51.332;6.778;2023-08-06T05:08:15;3.20;;;3.00;;
920;SDS011;447;51.332;6.778;2023-08-06T05:10:47;3.47;;;3.17;;
920;SDS011;447;51.332;6.778;2023-08-06T05:13:15;4.20;;;2.70;;
920;SDS011;447;51.332;6.778;2023-08-06T05:15:43;3.07;;;2.70;;
920;SDS011;447;51.332;6.778;2023-08-06T05:18:11;3.50;;;3.20;;
920;SDS011;447;51.332;6.778;2023-08-06T05:20:38;3.10;;;2.80;;
920;SDS011;447;51.332;6.778;2023-08-06T05:23:07;2.87;;;2.67;;
920;SDS011;447;51.332;6.778;2023-08-06T05:25:36;3.40;;;3.10;;
920;SDS011;447;51.332;6.778;2023-08-06T05:28:08;3.83;;;3.53;;
920;SDS011;447;51.332;6.778;2023-08-06T05:30:40;3.20;;;2.70;;
920;SDS011;447;51.332;6.778;2023-08-06T05:33:08;2.80;;;2.60;;
920;SDS011;447;51.332;6.778;2023-08-06T05:35:34;2.70;;;2.50;;
920;SDS011;447;51.332;6.778;2023-08-06T05:38:02;3.47;;;2.77;;
920;SDS011;447;51.332;6.778;2023-08-06T05:40:28;4.23;;;2.90;;
920;SDS011;447;51.332;6.778;2023-08-06T05:42:54;2.97;;;2.77;;
920;SDS011;447;51.332;6.778;2023-08-06T05:45:20;2.80;;;2.60;;
920;SDS011;447;51.332;6.778;2023-08-06T05:47:50;3.20;;;3.00;;
920;SDS011;447;51.332;6.778;2023-08-06T05:50:16;3.13;;;2.83;;
920;SDS011;447;51.332;6.778;2023-08-06T05:52:42;2.73;;;2.53;;
920;SDS011;447;51.332;6.778;2023-08-06T05:55:10;2.67;;;2.47;;
920;SDS011;447;51.332;6.778;2023-08-06T05:57:38;3.07;;;2.80;;
920;SDS011;447;51.332;6.778;2023-08-06T06:00:05;3.00;;;2.80;;
920;SDS011;447;51.332;6.778;2023-08-06T06:02:38;2.83;;;2.63;;
920;SDS011;447;51.332;6.778;2023-08-06T06:05:04;3.70;;;3.40;;
920;SDS011;447;51.332;6.778;2023-08-06T06:07:35;3.07;;;2.77;;
920;SDS011;447;51.332;6.778;2023-08-06T06:10:01;3.20;;;2.90;;
920;SDS011;447;51.332;6.778;2023-08-06T06:12:29;2.40;;;2.20;;
920;SDS011;447;51.332;6.778;2023-08-06T06:14:58;3.33;;;3.03;;
920;SDS011;447;51.332;6.778;2023-08-06T06:17:26;2.90;;;2.70;;
920;SDS011;447;51.332;6.778;2023-08-06T06:19:53;4.07;;;3.00;;
920;SDS011;447;51.332;6.778;2023-08-06T06:22:22;3.20;;;3.00;;
920;SDS011;447;51.332;6.778;2023-08-06T06:24:48;3.50;;;3.20;;
920;SDS011;447;51.332;6.778;2023-08-06T06:27:14;2.90;;;2.70;;
920;SDS011;447;51.332;6.778;2023-08-06T06:29:40;3.70;;;2.87;;
920;SDS011;447;51.332;6.778;2023-08-06T06:32:06;3.30;;;3.00;;
920;SDS011;447;51.332;6.778;2023-08-06T06:34:35;3.00;;;2.77;;
920;SDS011;447;51.332;6.778;2023-08-06T06:37:01;3.00;;;2.80;;
920;SDS011;447;51.332;6.778;2023-08-06T06:39:27;3.40;;;3.10;;
920;SDS011;447;51.332;6.778;2023-08-06T06:41:55;2.53;;;2.40;;
920;SDS011;447;51.332;6.778;2023-08-06T06:44:32;3.10;;;2.90;;
920;SDS011;447;51.332;6.778;2023-08-06T06:47:00;3.00;;;2.80;;
920;SDS011;447;51.332;6.778;2023-08-06T06:49:29;3.90;;;3.07;;
920;SDS011;447;51.332;6.778;2023-08-06T06:51:57;3.37;;;3.10;;
920;SDS011;447;51.332;6.778;2023-08-06T06:54:28;3.20;;;2.90;;
920;SDS011;447;51.332;6.778;2023-08-06T06:56:56;3.10;;;2.90;;
920;SDS011;447;51.332;6.778;2023-08-06T06:59:25;3.20;;;2.90;;
920;SDS011;447;51.332;6.778;2023-08-06T07:01:51;3.43;;;3.13;;
920;SDS011;447;51.332;6.778;2023-08-06T07:04:17;3.63;;;3.17;;
920;SDS011;447;51.332;6.778;2023-08-06T07:06:43;3.30;;;3.00;;
920;SDS011;447;51.332;6.778;2023-08-06T07:09:09;3.20;;;2.90;;
920;SDS011;447;51.332;6.778;2023-08-06T07:11:35;3.07;;;2.77;;
920;SDS011;447;51.332;6.778;2023-08-06T07:14:01;3.20;;;2.80;;
920;SDS011;447;51.332;6.778;2023-08-06T07:16:27;4.27;;;3.50;;
920;SDS011;447;51.332;6.778;2023-08-06T07:18:54;3.37;;;3.07;;
920;SDS011;447;51.332;6.778;2023-08-06T07:21:21;4.80;;;2.80;;
920;SDS011;447;51.332;6.778;2023-08-06T07:23:50;5.00;;;2.60;;
920;SDS011;447;51.332;6.778;2023-08-06T07:26:16;3.10;;;2.90;;
920;SDS011;447;51.332;6.778;2023-08-06T07:28:43;2.80;;;2.60;;
920;SDS011;447;51.332;6.778;2023-08-06T07:31:10;3.47;;;3.17;;
920;SDS011;447;51.332;6.778;2023-08-06T07:33:36;3.20;;;2.90;;
920;SDS011;447;51.332;6.778;2023-08-06T07:36:08;2.80;;;2.60;;
920;SDS011;447;51.332;6.778;2023-08-06T07:38:38;3.33;;;3.03;;
920;SDS011;447;51.332;6.778;2023-08-06T07:41:04;3.30;;;3.00;;
920;SDS011;447;51.332;6.778;2023-08-06T07:43:31;3.40;;;3.10;;
920;SDS011;447;51.332;6.778;2023-08-06T07:46:00;3.10;;;2.90;;
920;SDS011;447;51.332;6.778;2023-08-06T07:48:26;2.80;;;2.60;;
920;SDS011;447;51.332;6.778;2023-08-06T07:50:55;3.20;;;3.00;;
920;SDS011;447;51.332;6.778;2023-08-06T07:53:24;3.13;;;2.87;;
920;SDS011;447;51.332;6.778;2023-08-06T07:55:55;3.60;;;3.30;;
920;SDS011;447;51.332;6.778;2023-08-06T07:58:21;3.07;;;2.87;;
920;SDS011;447;51.332;6.778;2023-08-06T08:00:52;3.03;;;2.83;;
920;SDS011;447;51.332;6.778;2023-08-06T08:03:18;3.30;;;3.10;;
920;SDS011;447;51.332;6.778;2023-08-06T08:05:45;3.40;;;3.13;;
920;SDS011;447;51.332;6.778;2023-08-06T08:08:13;3.40;;;3.10;;
920;SDS011;447;51.332;6.778;2023-08-06T08:10:43;3.10;;;2.90;;
920;SDS011;447;51.332;6.778;2023-08-06T08:13:09;3.23;;;3.03;;
920;SDS011;447;51.332;6.778;2023-08-06T08:15:35;3.40;;;3.10;;
920;SDS011;447;51.332;6.778;2023-08-06T08:18:01;3.10;;;2.90;;
920;SDS011;447;51.332;6.778;2023-08-06T08:20:28;3.20;;;2.97;;
920;SDS011;447;51.332;6.778;2023-08-06T08:22:58;3.07;;;2.87;;
920;SDS011;447;51.332;6.778;2023-08-06T08:25:26;3.10;;;2.90;;
920;SDS011;447;51.332;6.778;2023-08-06T08:27:53;2.80;;;2.60;;
920;SDS011;447;51.332;6.778;2023-08-06T08:30:19;3.17;;;2.87;;
920;SDS011;447;51.332;6.778;2023-08-06T08:32:46;4.70;;;3.37;;
920;SDS011;447;51.332;6.778;2023-08-06T08:35:13;3.20;;;3.00;;
920;SDS011;447;51.332;6.778;2023-08-06T08:37:42;3.10;;;2.90;;
920;SDS011;447;51.332;6.778;2023-08-06T08:40:08;3.50;;;3.20;;
920;SDS011;447;51.332;6.778;2023-08-06T08:42:38;3.20;;;3.00;;
920;SDS011;447;51.332;6.778;2023-08-06T08:45:04;3.10;;;2.90;;
920;SDS011;447;51.332;6.778;2023-08-06T08:47:42;3.30;;;3.00;;
920;SDS011;447;51.332;6.778;2023-08-06T08:50:09;3.07;;;2.87;;
920;SDS011;447;51.332;6.778;2023-08-06T08:52:36;3.80;;;3.50;;
920;SDS011;447;51.332;6.778;2023-08-06T08:55:04;3.07;;;2.87;;
920;SDS011;447;51.332;6.778;2023-08-06T08:57:32;3.17;;;2.93;;
920;SDS011;447;51.332;6.778;2023-08-06T08:59:58;3.70;;;2.87;;
920;SDS011;447;51.332;6.778;2023-08-06T09:02:24;3.40;;;3.20;;
920;SDS011;447;51.332;6.778;2023-08-06T09:04:56;3.63;;;3.23;;
920;SDS011;447;51.332;6.778;2023-08-06T09:07:26;3.10;;;2.90;;
920;SDS011;447;51.332;6.778;2023-08-06T09:09:54;4.37;;;3.10;;
920;SDS011;447;51.332;6.778;2023-08-06T09:12:26;3.97;;;3.67;;
920;SDS011;447;51.332;6.778;2023-08-06T09:14:53;5.33;;;3.60;;
920;SDS011;447;51.332;6.778;2023-08-06T09:17:19;3.80;;;3.50;;
920;SDS011;447;51.332;6.778;2023-08-06T09:19:49;3.80;;;3.50;;
920;SDS011;447;51.332;6.778;2023-08-06T09:22:15;3.80;;;3.50;;
920;SDS011;447;51.332;6.778;2023-08-06T09:24:46;3.90;;;3.50;;
920;SDS011;447;51.332;6.778;2023-08-06T09:27:12;3.93;;;3.63;;
920;SDS011;447;51.332;6.778;2023-08-06T09:29:40;4.70;;;3.70;;
920;SDS011;447;51.332;6.778;2023-08-06T09:32:07;3.90;;;3.57;;
920;SDS011;447;51.332;6.778;2023-08-06T09:34:33;3.67;;;3.40;;
920;SDS011;447;51.332;6.778;2023-08-06T09:36:59;3.97;;;3.20;;
920;SDS011;447;51.332;6.778;2023-08-06T09:39:28;3.63;;;3.33;;
920;SDS011;447;51.332;6.778;2023-08-06T09:41:56;3.77;;;3.47;;
920;SDS011;447;51.332;6.778;2023-08-06T09:44:23;3.80;;;3.50;;
920;SDS011;447;51.332;6.778;2023-08-06T09:46:52;4.07;;;3.23;;
920;SDS011;447;51.332;6.778;2023-08-06T09:49:26;3.77;;;3.47;;
920;SDS011;447;51.332;6.778;2023-08-06T09:51:59;4.40;;;3.73;;
920;SDS011;447;51.332;6.778;2023-08-06T09:54:28;4.60;;;3.20;;
920;SDS011;447;51.332;6.778;2023-08-06T09:56:55;3.60;;;3.30;;
920;SDS011;447;51.332;6.778;2023-08-06T09:59:22;3.93;;;3.63;;
920;SDS011;447;51.332;6.778;2023-08-06T10:01:48;3.50;;;3.20;;
920;SDS011;447;51.332;6.778;2023-08-06T10:04:19;3.50;;;3.13;;
920;SDS011;447;51.332;6.778;2023-08-06T10:06:48;4.33;;;3.30;;
920;SDS011;447;51.332;6.778;2023-08-06T10:09:14;3.93;;;3.53;;
920;SDS011;447;51.332;6.778;2023-08-06T10:11:43;3.63;;;3.43;;
920;SDS011;447;51.332;6.778;2023-08-06T10:16:54;4.00;;;3.70;;
920;SDS011;447;51.332;6.778;2023-08-06T10:19:25;3.80;;;3.50;;
920;SDS011;447;51.332;6.778;2023-08-06T10:22:08;4.00;;;3.53;;
920;SDS011;447;51.332;6.778;2023-08-06T10:24:45;4.13;;;3.47;;
920;SDS011;447;51.332;6.778;2023-08-06T10:27:12;3.50;;;3.20;;
920;SDS011;447;51.332;6.778;2023-08-06T10:29:39;4.60;;;3.60;;
920;SDS011;447;51.332;6.778;2023-08-06T10:32:07;4.70;;;4.10;;
920;SDS011;447;51.332;6.778;2023-08-06T10:37:22;4.27;;;3.97;;
920;SDS011;447;51.332;6.778;2023-08-06T10:39:50;5.23;;;3.57;;
920;SDS011;447;51.332;6.778;2023-08-06T10:42:20;5.60;;;3.90;;
920;SDS011;447;51.332;6.778;2023-08-06T10:47:39;4.27;;;2.87;;
920;SDS011;447;51.332;6.778;2023-08-06T10:50:11;3.10;;;2.90;;
920;SDS011;447;51.332;6.778;2023-08-06T10:52:39;3.50;;;3.10;;
920;SDS011;447;51.332;6.778;2023-08-06T10:55:07;3.40;;;3.10;;
920;SDS011;447;51.332;6.778;2023-08-06T10:57:34;4.20;;;3.00;;
920;SDS011;447;51.332;6.778;2023-08-06T11:00:00;3.73;;;3.43;;
920;SDS011;447;51.332;6.778;2023-08-06T11:02:29;3.23;;;2.90;;
920;SDS011;447;51.332;6.778;2023-08-06T11:05:04;3.33;;;3.03;;
920;SDS011;447;51.332;6.778;2023-08-06T11:07:34;2.93;;;2.73;;
920;SDS011;447;51.332;6.778;2023-08-06T11:10:03;3.50;;;2.80;;
920;SDS011;447;51.332;6.778;2023-08-06T11:12:31;3.00;;;2.70;;
920;SDS011;447;51.332;6.778;2023-08-06T11:14:58;2.70;;;2.23;;
920;SDS011;447;51.332;6.778;2023-08-06T11:17:28;3.63;;;2.50;;
920;SDS011;447;51.332;6.778;2023-08-06T11:19:54;3.20;;;3.00;;
920;SDS011;447;51.332;6.778;2023-08-06T11:22:23;6.00;;;2.93;;
920;SDS011;447;51.332;6.778;2023-08-06T11:24:53;2.60;;;2.40;;
920;SDS011;447;51.332;6.778;2023-08-06T11:27:20;2.40;;;2.20;;
920;SDS011;447;51.332;6.778;2023-08-06T11:29:49;2.23;;;2.03;;
920;SDS011;447;51.332;6.778;2023-08-06T11:32:15;2.50;;;2.40;;
920;SDS011;447;51.332;6.778;2023-08-06T11:34:41;2.33;;;2.20;;
920;SDS011;447;51.332;6.778;2023-08-06T11:37:11;2.70;;;2.40;;
920;SDS011;447;51.332;6.778;2023-08-06T11:39:44;2.80;;;2.60;;
920;SDS011;447;51.332;6.778;2023-08-06T11:42:14;2.80;;;2.60;;
920;SDS011;447;51.332;6.778;2023-08-06T11:44:40;2.57;;;2.40;;
920;SDS011;447;51.332;6.778;2023-08-06T11:47:16;2.33;;;2.20;;
920;SDS011;447;51.332;6.778;2023-08-06T11:49:47;3.27;;;2.97;;
920;SDS011;447;51.332;6.778;2023-08-06T11:52:21;2.70;;;2.47;;
920;SDS011;447;51.332;6.778;2023-08-06T11:57:33;3.00;;;2.57;;
920;SDS011;447;51.332;6.778;2023-08-06T12:00:10;3.03;;;2.83;;
920;SDS011;447;51.332;6.778;2023-08-06T12:02:42;2.83;;;2.63;;
920;SDS011;447;51.332;6.778;2023-08-06T12:05:12;3.17;;;2.97;;
920;SDS011;447;51.332;6.778;2023-08-06T12:07:40;2.93;;;2.67;;
920;SDS011;447;51.332;6.778;2023-08-06T12:10:09;2.57;;;2.37;;
920;SDS011;447;51.332;6.778;2023-08-06T12:12:36;2.60;;;2.40;;
920;SDS011;447;51.332;6.778;2023-08-06T12:15:05;2.97;;;2.77;;
920;SDS011;447;51.332;6.778;2023-08-06T12:17:32;3.20;;;2.90;;
920;SDS011;447;51.332;6.778;2023-08-06T12:19:58;2.67;;;2.47;;
920;SDS011;447;51.332;6.778;2023-08-06T12:22:24;2.97;;;2.60;;
920;SDS011;447;51.332;6.778;2023-08-06T12:24:50;2.50;;;2.30;;
920;SDS011;447;51.332;6.778;2023-08-06T12:27:17;2.53;;;2.33;;
920;SDS011;447;51.332;6.778;2023-08-06T12:29:44;2.93;;;2.73;;
920;SDS011;447;51.332;6.778;2023-08-06T12:32:14;2.63;;;2.43;;
920;SDS011;447;51.332;6.778;2023-08-06T12:34:42;2.70;;;2.50;;
920;SDS011;447;51.332;6.778;2023-08-06T12:37:10;3.00;;;2.80;;
920;SDS011;447;51.332;6.778;2023-08-06T12:39:37;2.97;;;2.77;;
920;SDS011;447;51.332;6.778;2023-08-06T12:42:05;2.97;;;2.77;;
920;SDS011;447;51.332;6.778;2023-08-06T12:44:34;2.70;;;2.50;;
920;SDS011;447;51.332;6.778;2023-08-06T12:47:00;2.97;;;2.77;;
920;SDS011;447;51.332;6.778;2023-08-06T12:49:28;2.87;;;2.67;;
920;SDS011;447;51.332;6.778;2023-08-06T12:51:59;2.77;;;2.50;;
920;SDS011;447;51.332;6.778;2023-08-06T12:54:25;2.67;;;2.47;;
920;SDS011;447;51.332;6.778;2023-08-06T12:56:52;2.97;;;2.77;;
920;SDS011;447;51.332;6.778;2023-08-06T12:59:18;2.30;;;2.10;;
920;SDS011;447;51.332;6.778;2023-08-06T13:01:47;2.67;;;2.47;;
920;SDS011;447;51.332;6.778;2023-08-06T13:04:15;2.50;;;2.30;;
920;SDS011;447;51.332;6.778;2023-08-06T13:06:44;2.40;;;2.20;;
920;SDS011;447;51.332;6.778;2023-08-06T13:09:10;2.10;;;2.00;;
920;SDS011;447;51.332;6.778;2023-08-06T13:11:39;3.67;;;2.60;;
920;SDS011;447;51.332;6.778;2023-08-06T13:14:09;3.03;;;2.83;;
920;SDS011;447;51.332;6.778;2023-08-06T13:16:38;2.90;;;2.53;;
920;SDS011;447;51.332;6.778;2023-08-06T13:19:08;2.60;;;2.40;;
920;SDS011;447;51.332;6.778;2023-08-06T13:21:37;2.10;;;2.00;;
920;SDS011;447;51.332;6.778;2023-08-06T13:24:17;3.03;;;2.83;;
920;SDS011;447;51.332;6.778;2023-08-06T13:26:45;2.30;;;2.20;;
920;SDS011;447;51.332;6.778;2023-08-06T13:29:12;2.57;;;2.37;;
920;SDS011;447;51.332;6.778;2023-08-06T13:31:37;3.83;;;2.50;;
920;SDS011;447;51.332;6.778;2023-08-06T13:34:04;2.57;;;2.37;;
920;SDS011;447;51.332;6.778;2023-08-06T13:36:30;2.60;;;2.40;;
920;SDS011;447;51.332;6.778;2023-08-06T13:39:00;2.60;;;2.40;;
920;SDS011;447;51.332;6.778;2023-08-06T13:41:26;2.70;;;2.50;;
920;SDS011;447;51.332;6.778;2023-08-06T13:43:53;2.60;;;2.40;;
920;SDS011;447;51.332;6.778;2023-08-06T13:46:19;3.73;;;2.90;;
920;SDS011;447;51.332;6.778;2023-08-06T13:48:46;3.10;;;2.57;;
920;SDS011;447;51.332;6.778;2023-08-06T13:51:15;3.00;;;2.30;;
920;SDS011;447;51.332;6.778;2023-08-06T13:53:44;2.47;;;2.27;;
920;SDS011;447;51.332;6.778;2023-08-06T13:56:10;2.80;;;2.60;;
920;SDS011;447;51.332;6.778;2023-08-06T13:58:39;2.70;;;2.50;;
920;SDS011;447;51.332;6.778;2023-08-06T14:01:05;3.50;;;3.30;;
920;SDS011;447;51.332;6.778;2023-08-06T14:03:32;2.63;;;2.43;;
920;SDS011;447;51.332;6.778;2023-08-06T14:06:01;3.10;;;2.80;;
920;SDS011;447;51.332;6.778;2023-08-06T14:08:27;2.70;;;2.50;;
920;SDS011;447;51.332;6.778;2023-08-06T14:10:53;3.40;;;3.10;;
920;SDS011;447;51.332;6.778;2023-08-06T14:13:20;2.90;;;2.70;;
920;SDS011;447;51.332;6.778;2023-08-06T14:15:47;3.50;;;2.63;;
920;SDS011;447;51.332;6.778;2023-08-06T14:18:16;2.97;;;2.77;;
920;SDS011;447;51.332;6.778;2023-08-06T14:20:44;3.50;;;2.70;;
920;SDS011;447;51.332;6.778;2023-08-06T14:23:12;2.53;;;2.33;;
920;SDS011;447;51.332;6.778;2023-08-06T14:25:38;2.50;;;2.30;;
920;SDS011;447;51.332;6.778;2023-08-06T14:28:07;2.90;;;2.70;;
920;SDS011;447;51.332;6.778;2023-08-06T14:30:33;2.60;;;2.40;;
920;SDS011;447;51.332;6.778;2023-08-06T14:33:00;2.90;;;2.70;;
920;SDS011;447;51.332;6.778;2023-08-06T14:35:27;2.77;;;2.57;;
920;SDS011;447;51.332;6.778;2023-08-06T14:37:53;3.30;;;3.00;;
920;SDS011;447;51.332;6.778;2023-08-06T14:40:25;2.67;;;2.47;;
920;SDS011;447;51.332;6.778;2023-08-06T14:42:54;2.40;;;2.20;;
920;SDS011;447;51.332;6.778;2023-08-06T14:45:20;2.67;;;2.47;;
920;SDS011;447;51.332;6.778;2023-08-06T14:47:49;3.30;;;2.50;;
920;SDS011;447;51.332;6.778;2023-08-06T14:50:17;2.73;;;2.53;;
920;SDS011;447;51.332;6.778;2023-08-06T14:52:45;3.10;;;2.80;;
920;SDS011;447;51.332;6.778;2023-08-06T14:55:33;2.73;;;2.53;;
920;SDS011;447;51.332;6.778;2023-08-06T14:58:01;2.40;;;2.30;;
920;SDS011;447;51.332;6.778;2023-08-06T15:00:27;2.80;;;2.60;;
920;SDS011;447;51.332;6.778;2023-08-06T15:02:54;3.30;;;3.00;;
920;SDS011;447;51.332;6.778;2023-08-06T15:05:20;2.47;;;2.27;;
920;SDS011;447;51.332;6.778;2023-08-06T15:07:48;2.70;;;2.50;;
920;SDS011;447;51.332;6.778;2023-08-06T15:10:14;2.37;;;2.20;;
920;SDS011;447;51.332;6.778;2023-08-06T15:12:41;2.70;;;2.50;;
920;SDS011;447;51.332;6.778;2023-08-06T15:15:07;3.23;;;2.93;;
920;SDS011;447;51.332;6.778;2023-08-06T15:17:33;3.47;;;2.23;;
920;SDS011;447;51.332;6.778;2023-08-06T15:20:04;3.20;;;2.90;;
920;SDS011;447;51.332;6.778;2023-08-06T15:22:31;2.80;;;2.17;;
920;SDS011;447;51.332;6.778;2023-08-06T15:25:01;2.53;;;2.33;;
920;SDS011;447;51.332;6.778;2023-08-06T15:27:28;3.63;;;2.37;;
920;SDS011;447;51.332;6.778;2023-08-06T15:29:56;2.13;;;2.03;;
920;SDS011;447;51.332;6.778;2023-08-06T15:32:23;2.80;;;2.53;;
920;SDS011;447;51.332;6.778;2023-08-06T15:34:52;2.83;;;2.30;;
920;SDS011;447;51.332;6.778;2023-08-06T15:37:18;2.50;;;2.30;;
920;SDS011;447;51.332;6.778;2023-08-06T15:39:46;4.20;;;2.40;;
920;SDS011;447;51.332;6.778;2023-08-06T15:42:17;2.60;;;2.40;;
920;SDS011;447;51.332;6.778;2023-08-06T15:44:43;2.67;;;2.47;;
920;SDS011;447;51.332;6.778;2023-08-06T15:47:09;2.30;;;2.10;;
920;SDS011;447;51.332;6.778;2023-08-06T15:49:37;2.60;;;2.40;;
920;SDS011;447;51.332;6.778;2023-08-06T15:52:03;2.60;;;2.40;;
920;SDS011;447;51.332;6.778;2023-08-06T15:54:29;3.00;;;2.70;;
920;SDS011;447;51.332;6.778;2023-08-06T15:56:55;2.43;;;2.20;;
920;SDS011;447;51.332;6.778;2023-08-06T15:59:29;2.40;;;2.20;;
920;SDS011;447;51.332;6.778;2023-08-06T16:02:00;3.73;;;2.37;;
920;SDS011;447;51.332;6.778;2023-08-06T16:04:32;2.53;;;2.33;;